Time;durP1;ratioP1;P1;durP2;ratioP2;P2;SDS_P1;SDS_P2;PMS_P1;PMS_P2;Temp;Humidity;BMP_temperature;BMP_pressure;BME280_temperature;BME280_humidity;BME280_pressure;Samples;Min_cycle;Max_cycle;Signal;HPM_P1;HPM_P2
2021/12/18 00:00:40;;;;;;;27.45;16.98;;;;;;;;;;4997075;28;20098;-77
2021/12/18 00:03:07;;;;;;;33.47;19.45;;;;;;;;;;4997520;28;20065;-77
2021/12/18 00:05:33;;;;;;;29.65;16.63;;;;;;;;;;4999227;28;20050;-75
2021/12/18 00:07:59;;;;;;;28.70;16.73;;;;;;;;;;4998678;28;20084;-75
2021/12/18 00:10:26;;;;;;;29.92;17.23;;;;;;;;;;4998259;28;20057;-74
2021/12/18 00:12:52;;;;;;;27.23;17.23;;;;;;;;;;4997864;28;20098;-75
2021/12/18 00:15:19;;;;;;;27.15;17.33;;;;;;;;;;4998522;28;20038;-73
2021/12/18 00:17:45;;;;;;;29.65;17.65;;;;;;;;;;4998298;28;20170;-77
2021/12/18 00:20:14;;;;;;;28.08;19.00;;;;;;;;;;4998406;28;20026;-75
2021/12/18 00:22:40;;;;;;;33.55;18.35;;;;;;;;;;4997756;28;20038;-74
2021/12/18 00:25:06;;;;;;;29.88;19.35;;;;;;;;;;4998426;28;20081;-76
2021/12/18 00:27:32;;;;;;;32.92;18.02;;;;;;;;;;5001576;28;20086;-76
2021/12/18 00:29:58;;;;;;;35.33;19.60;;;;;;;;;;5002093;28;20030;-73
2021/12/18 00:32:24;;;;;;;33.40;19.33;;;;;;;;;;5001665;28;20030;-76
2021/12/18 00:34:50;;;;;;;30.98;19.33;;;;;;;;;;5002030;28;20053;-77
2021/12/18 00:37:16;;;;;;;37.05;20.05;;;;;;;;;;5001821;28;20033;-76
2021/12/18 00:39:55;;;;;;;30.30;18.17;;;;;;;;;;5001672;28;20037;-76
2021/12/18 00:42:37;;;;;;;30.92;19.63;;;;;;;;;;5001944;28;20026;-76
2021/12/18 00:45:11;;;;;;;35.10;19.23;;;;;;;;;;5001101;28;20076;-77
2021/12/18 00:47:37;;;;;;;30.20;18.90;;;;;;;;;;5001357;28;20019;-77
2021/12/18 00:50:04;;;;;;;34.67;19.67;;;;;;;;;;5001817;28;20029;-77
2021/12/18 00:52:31;;;;;;;31.60;17.25;;;;;;;;;;5000829;28;20030;-76
2021/12/18 00:54:57;;;;;;;27.98;17.33;;;;;;;;;;5001344;28;20457;-75
2021/12/18 00:57:23;;;;;;;25.75;15.60;;;;;;;;;;5001346;28;20069;-76
2021/12/18 00:59:52;;;;;;;28.25;16.85;;;;;;;;;;5001895;28;20426;-79
2021/12/18 01:02:18;;;;;;;24.85;15.90;;;;;;;;;;5002612;28;20030;-78
2021/12/18 01:04:44;;;;;;;26.63;15.77;;;;;;;;;;5001572;28;20038;-73
2021/12/18 01:07:10;;;;;;;24.65;15.82;;;;;;;;;;5001072;28;20119;-77
2021/12/18 01:12:27;;;;;;;26.88;17.05;;;;;;;;;;5001916;28;20124;-72
2021/12/18 01:15:11;;;;;;;30.95;17.25;;;;;;;;;;5001449;28;20031;-76
2021/12/18 01:23:06;;;;;;;35.33;20.58;;;;;;;;;;5000668;28;20036;-77
2021/12/18 01:25:32;;;;;;;39.67;21.20;;;;;;;;;;5002129;28;20035;-78
2021/12/18 01:27:58;;;;;;;37.38;20.90;;;;;;;;;;5001702;28;20082;-76
2021/12/18 01:30:24;;;;;;;38.33;22.95;;;;;;;;;;5001878;28;20100;-74
2021/12/18 01:32:51;;;;;;;34.55;19.50;;;;;;;;;;5002352;28;20033;-77
2021/12/18 01:35:17;;;;;;;36.78;21.02;;;;;;;;;;5001557;28;20026;-75
2021/12/18 01:37:44;;;;;;;46.78;23.95;;;;;;;;;;4999859;28;20057;-74
2021/12/18 01:40:11;;;;;;;37.60;22.38;;;;;;;;;;5000270;28;20026;-77
2021/12/18 01:53:11;;;;;;;34.03;21.35;;;;;;;;;;5000186;28;20041;-74
2021/12/18 01:55:38;;;;;;;36.30;20.88;;;;;;;;;;4999380;28;20081;-77
2021/12/18 01:58:05;;;;;;;38.92;20.30;;;;;;;;;;4998471;28;20030;-74
2021/12/18 02:00:35;;;;;;;35.67;20.50;;;;;;;;;;4999617;28;20061;-73
2021/12/18 02:03:01;;;;;;;38.63;21.48;;;;;;;;;;4999497;28;20054;-73
2021/12/18 02:05:27;;;;;;;37.03;22.73;;;;;;;;;;4999211;28;20030;-75
2021/12/18 02:07:53;;;;;;;41.80;22.75;;;;;;;;;;4999361;28;20030;-75
2021/12/18 02:10:23;;;;;;;41.90;24.20;;;;;;;;;;4999398;28;20030;-76
2021/12/18 02:12:58;;;;;;;37.08;20.58;;;;;;;;;;4999008;28;20023;-77
2021/12/18 02:20:59;;;;;;;42.88;23.33;;;;;;;;;;4999563;28;20081;-76
2021/12/18 02:23:25;;;;;;;40.40;24.95;;;;;;;;;;4999126;28;20080;-72
2021/12/18 02:25:52;;;;;;;33.90;23.02;;;;;;;;;;4999531;28;20034;-77
2021/12/18 02:28:22;;;;;;;30.92;17.80;;;;;;;;;;4999081;28;20512;-77
2021/12/18 02:30:50;;;;;;;29.63;17.48;;;;;;;;;;4999061;28;20104;-77
2021/12/18 02:33:17;;;;;;;28.85;18.98;;;;;;;;;;4999338;28;20027;-73
2021/12/18 02:35:48;;;;;;;30.70;17.50;;;;;;;;;;4999187;28;20027;-77
2021/12/18 02:38:45;;;;;;;30.35;17.55;;;;;;;;;;4998705;28;20469;-77
2021/12/18 02:42:07;;;;;;;32.35;19.45;;;;;;;;;;4984153;28;20022;-77
2021/12/18 02:44:02;;;;;;;31.98;20.45;;;;;;;;;;4998217;28;20031;-75
2021/12/18 02:46:28;;;;;;;30.08;17.48;;;;;;;;;;4998910;28;20031;-76
2021/12/18 02:48:55;;;;;;;31.88;19.00;;;;;;;;;;4998752;28;20022;-72
2021/12/18 02:51:22;;;;;;;29.35;17.35;;;;;;;;;;5002549;28;20402;-77
2021/12/18 02:53:49;;;;;;;31.95;19.20;;;;;;;;;;5002067;28;20536;-78
2021/12/18 02:56:16;;;;;;;32.33;19.27;;;;;;;;;;5000915;28;20046;-75
2021/12/18 02:58:45;;;;;;;29.30;18.20;;;;;;;;;;4999234;28;20470;-77
2021/12/18 03:01:12;;;;;;;26.17;15.82;;;;;;;;;;4999007;28;20041;-78
2021/12/18 03:03:41;;;;;;;27.48;18.42;;;;;;;;;;4999124;28;20023;-77
2021/12/18 03:06:25;;;;;;;29.65;17.45;;;;;;;;;;4997394;28;20038;-76
2021/12/18 03:09:11;;;;;;;26.10;15.75;;;;;;;;;;4998429;28;20105;-76
2021/12/18 03:25:21;;;;;;;32.90;20.83;;;;;;;;;;4998743;28;20528;-73
2021/12/18 03:27:48;;;;;;;24.80;15.68;;;;;;;;;;4998105;28;20026;-76
2021/12/18 03:30:14;;;;;;;24.80;15.82;;;;;;;;;;4999138;28;20072;-79
2021/12/18 03:32:40;;;;;;;23.42;13.32;;;;;;;;;;4998302;28;20034;-77
2021/12/18 03:35:07;;;;;;;25.98;14.88;;;;;;;;;;4997989;28;20026;-77
2021/12/18 03:37:37;;;;;;;26.80;15.60;;;;;;;;;;4998226;28;20069;-73
2021/12/18 03:40:07;;;;;;;30.30;16.02;;;;;;;;;;4998467;28;20022;-72
2021/12/18 03:42:33;;;;;;;26.05;15.20;;;;;;;;;;4998280;28;20062;-75
2021/12/18 03:44:59;;;;;;;30.48;15.50;;;;;;;;;;4997851;28;20034;-76
2021/12/18 03:47:25;;;;;;;22.27;13.70;;;;;;;;;;4998127;28;20034;-77
2021/12/18 03:49:52;;;;;;;21.80;12.93;;;;;;;;;;4997892;28;20458;-76
2021/12/18 03:52:18;;;;;;;22.83;13.73;;;;;;;;;;4998115;28;20026;-75
2021/12/18 03:54:44;;;;;;;24.75;14.75;;;;;;;;;;4997996;28;20545;-74
2021/12/18 03:57:10;;;;;;;21.52;14.13;;;;;;;;;;4997184;28;20081;-76
2021/12/18 03:59:37;;;;;;;24.17;13.93;;;;;;;;;;4999282;28;20141;-79
2021/12/18 04:02:03;;;;;;;26.45;15.07;;;;;;;;;;5001771;28;20069;-78
2021/12/18 04:04:30;;;;;;;25.10;14.30;;;;;;;;;;5000291;28;20417;-75
2021/12/18 04:06:56;;;;;;;27.38;14.88;;;;;;;;;;5002107;28;20026;-77
2021/12/18 04:09:22;;;;;;;24.55;13.10;;;;;;;;;;5002078;28;20440;-76
2021/12/18 04:11:48;;;;;;;23.65;13.48;;;;;;;;;;5001390;28;20030;-74
2021/12/18 04:14:17;;;;;;;27.63;13.43;;;;;;;;;;5001578;28;20067;-77
2021/12/18 04:16:43;;;;;;;30.35;14.23;;;;;;;;;;5001986;28;20065;-76
2021/12/18 04:19:09;;;;;;;30.60;14.65;;;;;;;;;;5001598;28;20109;-72
2021/12/18 04:21:36;;;;;;;28.42;13.45;;;;;;;;;;5001460;28;20033;-77
2021/12/18 04:24:03;;;;;;;26.25;14.20;;;;;;;;;;5015227;28;20436;-77
2021/12/18 04:26:29;;;;;;;30.75;14.40;;;;;;;;;;5005285;28;20053;-76
2021/12/18 04:28:55;;;;;;;29.50;14.45;;;;;;;;;;5001563;28;20030;-76
2021/12/18 04:31:21;;;;;;;27.35;13.98;;;;;;;;;;5001451;28;20026;-77
2021/12/18 04:33:47;;;;;;;27.05;15.32;;;;;;;;;;5001080;28;20030;-74
2021/12/18 04:36:13;;;;;;;29.30;14.43;;;;;;;;;;5000812;28;20512;-78
2021/12/18 04:38:40;;;;;;;33.67;15.50;;;;;;;;;;5003886;28;20037;-76
2021/12/18 04:41:09;;;;;;;39.53;16.92;;;;;;;;;;5018680;28;20036;-75
2021/12/18 04:43:35;;;;;;;30.83;14.77;;;;;;;;;;5001766;28;20110;-74
2021/12/18 04:46:01;;;;;;;33.22;14.85;;;;;;;;;;5001198;28;20089;-74
2021/12/18 04:48:27;;;;;;;34.35;16.58;;;;;;;;;;5010454;28;20076;-78
2021/12/18 04:50:53;;;;;;;29.55;14.65;;;;;;;;;;5004245;28;20374;-73
2021/12/18 04:53:19;;;;;;;40.42;17.73;;;;;;;;;;5008023;28;20022;-77
2021/12/18 04:55:45;;;;;;;37.03;17.08;;;;;;;;;;5001012;28;20054;-76
2021/12/18 04:58:11;;;;;;;31.40;15.45;;;;;;;;;;5000947;28;20065;-76
2021/12/18 05:00:39;;;;;;;34.67;18.17;;;;;;;;;;5001113;28;20045;-77
2021/12/18 05:03:07;;;;;;;34.75;16.33;;;;;;;;;;5000770;28;20041;-79
2021/12/18 05:05:34;;;;;;;37.20;15.70;;;;;;;;;;5017961;28;20052;-73
2021/12/18 05:08:01;;;;;;;36.30;16.42;;;;;;;;;;5006521;28;20105;-77
2021/12/18 05:10:27;;;;;;;32.47;16.05;;;;;;;;;;5000341;28;20039;-77
2021/12/18 05:12:54;;;;;;;35.65;16.65;;;;;;;;;;5006604;28;20021;-76
2021/12/18 05:15:20;;;;;;;41.70;17.45;;;;;;;;;;5009836;28;20088;-77
2021/12/18 05:17:46;;;;;;;40.35;19.13;;;;;;;;;;5001090;28;20026;-77
2021/12/18 05:20:12;;;;;;;36.63;17.17;;;;;;;;;;5000942;28;20385;-74
2021/12/18 05:22:39;;;;;;;41.97;17.88;;;;;;;;;;5000479;28;20026;-78
2021/12/18 05:25:05;;;;;;;37.05;17.55;;;;;;;;;;5002905;28;20488;-78
2021/12/18 05:27:31;;;;;;;38.08;18.35;;;;;;;;;;5014601;28;20474;-77
2021/12/18 05:29:57;;;;;;;38.45;18.40;;;;;;;;;;5001282;28;20040;-76
2021/12/18 05:32:23;;;;;;;35.55;16.90;;;;;;;;;;5002944;28;20507;-78
2021/12/18 05:34:50;;;;;;;35.13;17.67;;;;;;;;;;5015632;28;20040;-77
2021/12/18 05:37:30;;;;;;;38.55;17.17;;;;;;;;;;5016924;28;20393;-78
2021/12/18 05:39:56;;;;;;;35.20;16.88;;;;;;;;;;5011358;28;20061;-77
2021/12/18 05:42:22;;;;;;;37.20;16.40;;;;;;;;;;5000101;28;20029;-73
2021/12/18 05:44:49;;;;;;;42.83;18.77;;;;;;;;;;5000082;28;20493;-75
2021/12/18 05:47:15;;;;;;;39.80;17.42;;;;;;;;;;5000861;28;20111;-75
2021/12/18 05:49:41;;;;;;;37.90;16.42;;;;;;;;;;5006963;28;20105;-72
2021/12/18 05:52:08;;;;;;;35.40;16.42;;;;;;;;;;5009047;28;20050;-76
2021/12/18 05:54:35;;;;;;;41.47;17.58;;;;;;;;;;5000672;28;20033;-76
2021/12/18 05:57:06;;;;;;;41.00;18.05;;;;;;;;;;5000118;28;20089;-75
2021/12/18 05:59:32;;;;;;;37.95;16.00;;;;;;;;;;5009840;28;20026;-77
2021/12/18 06:01:58;;;;;;;40.85;18.30;;;;;;;;;;5000922;28;20022;-76
2021/12/18 06:04:24;;;;;;;32.20;17.33;;;;;;;;;;5002009;28;20026;-76
2021/12/18 06:06:50;;;;;;;35.13;17.05;;;;;;;;;;5010791;28;20037;-72
2021/12/18 06:09:16;;;;;;;39.08;18.52;;;;;;;;;;5000135;28;20112;-76
2021/12/18 06:11:42;;;;;;;42.42;18.77;;;;;;;;;;5005885;28;20026;-78
2021/12/18 06:14:09;;;;;;;37.30;17.65;;;;;;;;;;5017225;28;20037;-75
2021/12/18 06:16:35;;;;;;;43.65;19.73;;;;;;;;;;5004422;28;20093;-77
2021/12/18 06:19:01;;;;;;;35.80;18.05;;;;;;;;;;5001292;28;20393;-78
2021/12/18 06:21:27;;;;;;;43.55;18.65;;;;;;;;;;5013552;28;20105;-74
2021/12/18 06:23:54;;;;;;;46.70;18.10;;;;;;;;;;4999614;28;20212;-76
2021/12/18 06:26:22;;;;;;;45.90;20.10;;;;;;;;;;5000156;28;20058;-78
2021/12/18 06:28:48;;;;;;;44.67;17.55;;;;;;;;;;5001481;28;20050;-77
2021/12/18 06:31:14;;;;;;;44.13;18.70;;;;;;;;;;5017958;28;20031;-76
2021/12/18 06:33:40;;;;;;;45.22;19.05;;;;;;;;;;5002664;28;20030;-77
2021/12/18 06:36:06;;;;;;;38.20;17.52;;;;;;;;;;5003470;28;20030;-78
2021/12/18 06:38:32;;;;;;;41.92;19.05;;;;;;;;;;5000779;28;20504;-75
2021/12/18 06:40:58;;;;;;;45.22;20.75;;;;;;;;;;5002365;28;20094;-77
2021/12/18 06:43:24;;;;;;;48.25;19.83;;;;;;;;;;5000209;28;20053;-75
2021/12/18 06:45:50;;;;;;;44.55;17.88;;;;;;;;;;5000148;28;20037;-79
2021/12/18 06:48:16;;;;;;;40.55;18.88;;;;;;;;;;5004849;28;20078;-75
2021/12/18 06:50:43;;;;;;;53.33;20.60;;;;;;;;;;5002865;28;20022;-74
2021/12/18 06:53:09;;;;;;;47.65;19.38;;;;;;;;;;5000018;28;20029;-76
2021/12/18 06:55:35;;;;;;;42.30;18.90;;;;;;;;;;5000251;28;20382;-78
2021/12/18 06:58:01;;;;;;;45.33;19.98;;;;;;;;;;4999811;28;20029;-73
2021/12/18 07:00:27;;;;;;;43.25;20.27;;;;;;;;;;5000343;28;20488;-74
2021/12/18 07:02:54;;;;;;;45.42;19.33;;;;;;;;;;4999869;28;20038;-78
2021/12/18 07:05:20;;;;;;;46.67;19.38;;;;;;;;;;4999743;28;20042;-76
2021/12/18 07:07:46;;;;;;;49.88;19.83;;;;;;;;;;5006028;28;20116;-78
2021/12/18 07:10:13;;;;;;;47.92;18.70;;;;;;;;;;4999975;28;20046;-76
2021/12/18 07:12:39;;;;;;;43.60;21.13;;;;;;;;;;5000663;28;20023;-76
2021/12/18 07:15:07;;;;;;;43.20;17.35;;;;;;;;;;5004918;28;20133;-76
2021/12/18 07:17:33;;;;;;;41.53;18.77;;;;;;;;;;5012006;28;20050;-76
2021/12/18 07:19:59;;;;;;;46.08;20.08;;;;;;;;;;5003439;28;20543;-78
2021/12/18 07:22:25;;;;;;;47.03;20.83;;;;;;;;;;5000192;28;20392;-74
2021/12/18 07:24:51;;;;;;;46.28;19.63;;;;;;;;;;5006951;28;20023;-76
2021/12/18 07:27:17;;;;;;;49.78;21.23;;;;;;;;;;5000511;28;20038;-75
2021/12/18 07:29:43;;;;;;;52.08;20.80;;;;;;;;;;5009747;28;20018;-76
2021/12/18 07:32:09;;;;;;;43.47;20.23;;;;;;;;;;5002690;28;20038;-77
2021/12/18 07:34:35;;;;;;;45.47;18.55;;;;;;;;;;5007082;28;20072;-72
2021/12/18 07:37:01;;;;;;;37.97;19.13;;;;;;;;;;5004764;28;20034;-76
2021/12/18 07:39:27;;;;;;;43.47;18.88;;;;;;;;;;5000575;28;20552;-77
2021/12/18 07:41:54;;;;;;;40.25;19.00;;;;;;;;;;5000326;28;20042;-74
2021/12/18 07:44:20;;;;;;;37.05;18.60;;;;;;;;;;5000432;28;20034;-78
2021/12/18 07:46:46;;;;;;;43.65;20.15;;;;;;;;;;5000661;28;20086;-76
2021/12/18 07:49:12;;;;;;;51.20;21.10;;;;;;;;;;5001395;28;20101;-72
2021/12/18 07:51:39;;;;;;;38.95;18.73;;;;;;;;;;5001116;28;20027;-77
2021/12/18 07:54:05;;;;;;;40.58;19.00;;;;;;;;;;5001328;28;20029;-77
2021/12/18 07:56:32;;;;;;;41.80;18.42;;;;;;;;;;5000899;28;20050;-74
2021/12/18 07:58:58;;;;;;;38.35;16.42;;;;;;;;;;5000853;28;20038;-77
2021/12/18 08:01:24;;;;;;;37.15;18.45;;;;;;;;;;5000618;28;20038;-76
2021/12/18 08:03:50;;;;;;;44.05;17.80;;;;;;;;;;5000778;28;20367;-76
2021/12/18 08:06:18;;;;;;;41.60;18.83;;;;;;;;;;5000964;28;20032;-76
2021/12/18 08:08:44;;;;;;;46.67;20.90;;;;;;;;;;5001060;28;20026;-77
2021/12/18 08:11:10;;;;;;;43.50;20.08;;;;;;;;;;5001339;28;20037;-75
2021/12/18 08:13:36;;;;;;;41.90;17.35;;;;;;;;;;5001558;28;20030;-72
2021/12/18 08:16:03;;;;;;;42.08;18.67;;;;;;;;;;5001993;28;20026;-78
2021/12/18 08:18:29;;;;;;;43.85;18.27;;;;;;;;;;5001509;28;20026;-76
2021/12/18 08:20:55;;;;;;;49.30;18.50;;;;;;;;;;5001054;28;20019;-77
2021/12/18 08:23:21;;;;;;;41.97;20.25;;;;;;;;;;5001517;28;20381;-76
2021/12/18 08:25:48;;;;;;;41.90;17.80;;;;;;;;;;5001959;28;20425;-74
2021/12/18 08:28:14;;;;;;;51.90;20.55;;;;;;;;;;5001957;28;20520;-74
2021/12/18 08:30:40;;;;;;;40.55;18.75;;;;;;;;;;5001202;28;20393;-77
2021/12/18 08:33:07;;;;;;;42.58;18.63;;;;;;;;;;5001695;28;20030;-75
2021/12/18 08:35:34;;;;;;;43.97;19.00;;;;;;;;;;5000492;28;20026;-73
2021/12/18 08:38:00;;;;;;;41.50;17.88;;;;;;;;;;5000841;28;20030;-75
2021/12/18 08:40:27;;;;;;;43.97;17.77;;;;;;;;;;5000452;28;20022;-79
2021/12/18 08:42:53;;;;;;;39.22;17.83;;;;;;;;;;5000777;28;20062;-75
2021/12/18 08:45:20;;;;;;;46.53;20.00;;;;;;;;;;5001901;28;20437;-76
2021/12/18 08:47:46;;;;;;;41.35;18.25;;;;;;;;;;5006173;28;20078;-76
2021/12/18 08:50:17;;;;;;;45.45;18.52;;;;;;;;;;5008155;28;20033;-75
2021/12/18 08:52:43;;;;;;;45.63;18.95;;;;;;;;;;5007911;28;20478;-74
2021/12/18 08:55:09;;;;;;;44.67;21.15;;;;;;;;;;5007377;28;20109;-75
2021/12/18 08:57:35;;;;;;;49.67;20.13;;;;;;;;;;5006910;28;20050;-76
2021/12/18 09:00:02;;;;;;;51.72;20.58;;;;;;;;;;5007574;28;20022;-75
2021/12/18 09:02:28;;;;;;;45.70;20.70;;;;;;;;;;5007355;28;20061;-77
2021/12/18 09:04:54;;;;;;;52.22;22.20;;;;;;;;;;5006021;28;20516;-75
2021/12/18 09:07:20;;;;;;;43.45;20.70;;;;;;;;;;5004950;28;20049;-72
2021/12/18 09:09:46;;;;;;;43.55;18.38;;;;;;;;;;5005263;28;20021;-73
2021/12/18 09:12:12;;;;;;;42.72;17.08;;;;;;;;;;5005549;28;20023;-78
2021/12/18 09:14:39;;;;;;;43.33;18.40;;;;;;;;;;5005388;28;20026;-73
2021/12/18 09:17:08;;;;;;;41.92;17.90;;;;;;;;;;5005350;28;20054;-76
2021/12/18 09:19:34;;;;;;;40.20;18.45;;;;;;;;;;5005333;28;20034;-76
2021/12/18 09:22:01;;;;;;;38.25;17.45;;;;;;;;;;5005500;28;20023;-72
2021/12/18 09:24:27;;;;;;;35.65;16.23;;;;;;;;;;5004999;28;20033;-73
2021/12/18 09:26:53;;;;;;;43.13;18.60;;;;;;;;;;5004871;28;20082;-78
2021/12/18 09:29:19;;;;;;;39.38;19.33;;;;;;;;;;5004411;28;20034;-72
2021/12/18 09:31:46;;;;;;;37.17;16.92;;;;;;;;;;5005621;28;20022;-73
2021/12/18 09:34:12;;;;;;;40.28;17.77;;;;;;;;;;5005807;28;20355;-77
2021/12/18 09:36:38;;;;;;;36.17;16.77;;;;;;;;;;5006206;28;20034;-72
2021/12/18 09:39:05;;;;;;;34.72;15.98;;;;;;;;;;5005808;28;20084;-73
2021/12/18 09:41:32;;;;;;;47.38;18.83;;;;;;;;;;5003680;28;20026;-75
2021/12/18 09:43:58;;;;;;;39.22;17.10;;;;;;;;;;5005787;28;20077;-77
2021/12/18 09:46:24;;;;;;;37.42;18.40;;;;;;;;;;5004225;28;20026;-72
2021/12/18 09:48:50;;;;;;;38.50;18.45;;;;;;;;;;5005052;28;20026;-74
2021/12/18 09:51:27;;;;;;;35.45;17.10;;;;;;;;;;5003955;28;20030;-77
2021/12/18 09:54:00;;;;;;;41.55;17.00;;;;;;;;;;5005090;28;20061;-75
2021/12/18 09:56:27;;;;;;;34.75;16.50;;;;;;;;;;5003868;28;20058;-76
2021/12/18 09:58:54;;;;;;;34.42;16.95;;;;;;;;;;5004652;28;20037;-73
2021/12/18 10:01:20;;;;;;;33.97;16.55;;;;;;;;;;5006394;28;20026;-76
2021/12/18 10:03:51;;;;;;;30.90;15.70;;;;;;;;;;5005727;28;20109;-74
2021/12/18 10:06:39;;;;;;;39.92;17.05;;;;;;;;;;5004011;28;20027;-75
2021/12/18 10:09:26;;;;;;;33.00;16.67;;;;;;;;;;5004467;28;20026;-72
2021/12/18 10:11:54;;;;;;;34.67;16.00;;;;;;;;;;4991486;28;20107;-71
2021/12/18 10:14:31;;;;;;;33.28;16.48;;;;;;;;;;5004509;28;20490;-77
2021/12/18 10:16:57;;;;;;;36.40;16.42;;;;;;;;;;5004277;28;20041;-75
2021/12/18 10:19:26;;;;;;;36.88;17.33;;;;;;;;;;5004406;28;20037;-79
2021/12/18 10:22:02;;;;;;;34.17;17.48;;;;;;;;;;5003493;28;20027;-78
2021/12/18 10:24:29;;;;;;;36.50;18.00;;;;;;;;;;5005358;28;20031;-75
2021/12/18 10:26:55;;;;;;;32.10;15.13;;;;;;;;;;5006170;28;20030;-74
2021/12/18 10:29:35;;;;;;;35.03;18.98;;;;;;;;;;5005824;28;20022;-76
2021/12/18 10:32:08;;;;;;;34.13;16.98;;;;;;;;;;5004836;28;20026;-73
2021/12/18 10:34:34;;;;;;;32.38;15.80;;;;;;;;;;5004506;28;20046;-73
2021/12/18 10:37:14;;;;;;;32.05;14.82;;;;;;;;;;5004768;28;20485;-73
2021/12/18 10:39:45;;;;;;;32.30;14.43;;;;;;;;;;5003463;28;20034;-75
2021/12/18 10:42:22;;;;;;;35.67;16.55;;;;;;;;;;5003477;28;20037;-75
2021/12/18 10:44:56;;;;;;;35.38;16.05;;;;;;;;;;5004426;28;20030;-77
2021/12/18 10:47:22;;;;;;;26.30;14.10;;;;;;;;;;5003743;28;20049;-74
2021/12/18 10:49:48;;;;;;;28.75;14.73;;;;;;;;;;5003008;28;20022;-73
2021/12/18 10:52:14;;;;;;;36.22;14.82;;;;;;;;;;5005068;28;20035;-73
2021/12/18 10:54:41;;;;;;;30.23;16.00;;;;;;;;;;5005172;28;20038;-77
2021/12/18 10:57:19;;;;;;;29.50;15.55;;;;;;;;;;5005742;28;20050;-71
2021/12/18 10:59:46;;;;;;;31.52;16.92;;;;;;;;;;5006418;28;20033;-74
2021/12/18 11:02:14;;;;;;;36.53;15.60;;;;;;;;;;5005844;28;20029;-72
2021/12/18 11:04:41;;;;;;;32.30;16.30;;;;;;;;;;5005346;28;20026;-74
2021/12/18 11:07:17;;;;;;;29.50;14.13;;;;;;;;;;5005655;28;20084;-72
2021/12/18 11:10:00;;;;;;;32.13;15.95;;;;;;;;;;5005641;28;20042;-76
2021/12/18 11:15:11;;;;;;;37.05;17.67;;;;;;;;;;5005565;28;20053;-71
2021/12/18 11:17:37;;;;;;;36.30;17.85;;;;;;;;;;5005318;28;20038;-73
2021/12/18 11:20:04;;;;;;;36.38;16.25;;;;;;;;;;5006066;28;20058;-74
2021/12/18 11:22:31;;;;;;;35.90;15.70;;;;;;;;;;5005586;28;20393;-72
2021/12/18 11:25:00;;;;;;;36.30;18.35;;;;;;;;;;5004553;28;20030;-76
2021/12/18 11:27:26;;;;;;;33.15;17.08;;;;;;;;;;5005187;28;20026;-72
2021/12/18 11:30:00;;;;;;;34.30;16.13;;;;;;;;;;5005576;28;20102;-76
2021/12/18 11:32:30;;;;;;;49.63;21.95;;;;;;;;;;5006021;28;20029;-73
2021/12/18 11:34:59;;;;;;;39.20;19.48;;;;;;;;;;5005798;28;20022;-72
2021/12/18 11:37:26;;;;;;;31.77;16.52;;;;;;;;;;5004741;28;20019;-72
2021/12/18 11:39:56;;;;;;;33.10;16.88;;;;;;;;;;5005477;28;20064;-72
2021/12/18 11:42:28;;;;;;;32.03;16.75;;;;;;;;;;5005332;28;20053;-72
2021/12/18 11:44:56;;;;;;;35.55;17.30;;;;;;;;;;5004985;28;20030;-72
2021/12/18 11:47:23;;;;;;;35.83;18.30;;;;;;;;;;5004573;28;20037;-72
2021/12/18 11:49:49;;;;;;;33.70;17.95;;;;;;;;;;5004951;28;20022;-74
2021/12/18 11:52:15;;;;;;;43.85;20.80;;;;;;;;;;5004212;28;20042;-75
2021/12/18 11:54:52;;;;;;;46.30;22.88;;;;;;;;;;5004713;28;20058;-75
2021/12/18 11:57:37;;;;;;;45.42;21.42;;;;;;;;;;5003522;28;20050;-72
2021/12/18 12:00:08;;;;;;;34.97;18.50;;;;;;;;;;5004032;28;20030;-73
2021/12/18 12:02:45;;;;;;;41.13;19.73;;;;;;;;;;5004125;28;20041;-72
2021/12/18 12:05:12;;;;;;;35.58;19.33;;;;;;;;;;5004026;28;20034;-77
2021/12/18 12:07:39;;;;;;;40.65;19.88;;;;;;;;;;5002900;28;20030;-74
2021/12/18 12:10:23;;;;;;;38.10;18.40;;;;;;;;;;5004248;28;20449;-73
2021/12/18 12:12:51;;;;;;;36.90;17.38;;;;;;;;;;5006225;28;20026;-74
2021/12/18 12:15:18;;;;;;;38.63;17.08;;;;;;;;;;5006516;28;20034;-72
2021/12/18 12:18:00;;;;;;;35.47;17.95;;;;;;;;;;5006398;28;20030;-73
2021/12/18 12:20:35;;;;;;;39.97;19.58;;;;;;;;;;5007527;28;20026;-73
2021/12/18 12:23:03;;;;;;;38.97;17.70;;;;;;;;;;5010424;28;20150;-74
2021/12/18 12:25:40;;;;;;;37.42;18.20;;;;;;;;;;5010483;28;20504;-73
2021/12/18 12:28:25;;;;;;;43.88;21.95;;;;;;;;;;5010310;28;20037;-73
2021/12/18 12:30:51;;;;;;;45.60;23.35;;;;;;;;;;5010509;28;20023;-73
2021/12/18 12:33:22;;;;;;;39.67;20.30;;;;;;;;;;5010193;28;20031;-73
2021/12/18 12:36:00;;;;;;;73.78;35.13;;;;;;;;;;5010046;28;20026;-73
2021/12/18 12:38:28;;;;;;;42.38;21.65;;;;;;;;;;5005779;28;20045;-75
2021/12/18 12:40:57;;;;;;;55.78;28.92;;;;;;;;;;5004318;28;20037;-73
2021/12/18 12:43:27;;;;;;;41.70;23.25;;;;;;;;;;5004416;28;20497;-75
2021/12/18 12:45:57;;;;;;;40.05;20.35;;;;;;;;;;5004525;28;20485;-75
2021/12/18 12:48:23;;;;;;;36.03;19.73;;;;;;;;;;5003769;28;20034;-78
2021/12/18 12:51:00;;;;;;;41.65;21.45;;;;;;;;;;5003795;28;20033;-75
2021/12/18 12:53:45;;;;;;;37.80;20.17;;;;;;;;;;5002280;28;20025;-73
2021/12/18 12:56:15;;;;;;;38.75;19.33;;;;;;;;;;4998790;28;20509;-75
2021/12/18 12:58:41;;;;;;;35.33;18.15;;;;;;;;;;4997894;28;20068;-76
2021/12/18 13:01:07;;;;;;;32.47;16.40;;;;;;;;;;4997340;28;20023;-75
2021/12/18 13:03:46;;;;;;;36.72;18.83;;;;;;;;;;4997294;28;20481;-74
2021/12/18 13:06:24;;;;;;;39.15;19.63;;;;;;;;;;4997987;28;20033;-75
2021/12/18 13:08:50;;;;;;;33.90;17.25;;;;;;;;;;4982524;28;20478;-75
2021/12/18 13:11:25;;;;;;;36.60;18.00;;;;;;;;;;4998494;28;20034;-77
2021/12/18 13:13:53;;;;;;;37.50;18.88;;;;;;;;;;4996374;28;20489;-75
2021/12/18 13:16:21;;;;;;;33.70;19.63;;;;;;;;;;4998250;28;20030;-75
2021/12/18 13:18:54;;;;;;;34.78;19.95;;;;;;;;;;5000083;28;20049;-73
2021/12/18 13:21:23;;;;;;;36.58;19.88;;;;;;;;;;5002695;28;20038;-75
2021/12/18 13:23:49;;;;;;;36.00;18.15;;;;;;;;;;5002644;28;20065;-75
2021/12/18 13:26:17;;;;;;;48.35;23.27;;;;;;;;;;5003304;28;20026;-73
2021/12/18 13:28:54;;;;;;;49.53;25.38;;;;;;;;;;4996609;28;20030;-76
2021/12/18 13:31:23;;;;;;;62.08;30.65;;;;;;;;;;4997645;28;20429;-75
2021/12/18 13:33:54;;;;;;;49.22;23.92;;;;;;;;;;4995369;28;20025;-75
2021/12/18 13:36:20;;;;;;;37.13;18.00;;;;;;;;;;4998477;28;20026;-74
2021/12/18 13:38:46;;;;;;;31.33;16.13;;;;;;;;;;4997251;28;20026;-74
2021/12/18 13:41:14;;;;;;;24.33;13.70;;;;;;;;;;4996574;28;20062;-74
2021/12/18 13:43:41;;;;;;;21.92;11.80;;;;;;;;;;4992054;28;20040;-74
2021/12/18 13:46:11;;;;;;;19.58;10.30;;;;;;;;;;4995164;28;20030;-75
2021/12/18 13:48:42;;;;;;;19.00;11.65;;;;;;;;;;4995448;28;20137;-75
2021/12/18 13:51:16;;;;;;;23.98;11.88;;;;;;;;;;4994313;28;20030;-74
2021/12/18 13:53:49;;;;;;;20.77;11.52;;;;;;;;;;4995216;28;20033;-74
2021/12/18 13:56:16;;;;;;;16.67;11.05;;;;;;;;;;4982751;28;20375;-75
2021/12/18 13:58:43;;;;;;;21.98;11.60;;;;;;;;;;4995700;28;20022;-75
2021/12/18 14:01:17;;;;;;;23.10;13.27;;;;;;;;;;4994646;28;20381;-75
2021/12/18 14:03:44;;;;;;;19.77;11.77;;;;;;;;;;4995822;28;20044;-75
2021/12/18 14:06:19;;;;;;;21.45;12.25;;;;;;;;;;4998809;28;20022;-76
2021/12/18 14:08:47;;;;;;;20.23;12.05;;;;;;;;;;4999358;28;20022;-75
2021/12/18 14:11:14;;;;;;;24.77;13.75;;;;;;;;;;4996495;28;20061;-73
2021/12/18 14:13:41;;;;;;;22.08;14.00;;;;;;;;;;4999038;28;20023;-73
2021/12/18 14:16:08;;;;;;;20.10;12.02;;;;;;;;;;4998751;28;20065;-75
2021/12/18 14:18:36;;;;;;;18.17;11.93;;;;;;;;;;4999024;28;20404;-75
2021/12/18 14:21:03;;;;;;;23.70;13.60;;;;;;;;;;5004117;28;20029;-75
2021/12/18 14:23:30;;;;;;;19.33;13.27;;;;;;;;;;4998761;28;20048;-74
2021/12/18 14:26:16;;;;;;;17.77;11.50;;;;;;;;;;5008770;28;20065;-73
2021/12/18 14:28:42;;;;;;;19.55;12.77;;;;;;;;;;4995750;28;20038;-75
2021/12/18 14:31:24;;;;;;;14.73;10.57;;;;;;;;;;4995321;28;20030;-75
2021/12/18 14:34:01;;;;;;;17.15;11.63;;;;;;;;;;4995165;28;20053;-74
2021/12/18 14:36:47;;;;;;;12.15;7.57;;;;;;;;;;4995164;28;20035;-77
2021/12/18 14:39:20;;;;;;;12.30;8.27;;;;;;;;;;4995036;28;20121;-75
2021/12/18 14:41:57;;;;;;;16.20;12.50;;;;;;;;;;4995080;28;20112;-75
2021/12/18 14:44:23;;;;;;;16.85;11.35;;;;;;;;;;4992103;28;20122;-75
2021/12/18 14:47:03;;;;;;;15.15;8.88;;;;;;;;;;4995066;28;20041;-74
2021/12/18 14:49:29;;;;;;;17.33;12.48;;;;;;;;;;4994903;28;20577;-74
2021/12/18 14:52:02;;;;;;;15.15;10.40;;;;;;;;;;4994894;28;20112;-75
2021/12/18 14:54:28;;;;;;;15.02;8.65;;;;;;;;;;4991911;28;20015;-73
2021/12/18 14:57:14;;;;;;;11.80;7.10;;;;;;;;;;4998357;28;20121;-76
2021/12/18 14:59:40;;;;;;;14.55;8.20;;;;;;;;;;4994196;28;20041;-76
2021/12/18 15:02:06;;;;;;;10.27;6.80;;;;;;;;;;4995057;28;20077;-75
2021/12/18 15:04:32;;;;;;;9.35;6.38;;;;;;;;;;4994561;28;20548;-75
2021/12/18 15:06:58;;;;;;;7.13;5.38;;;;;;;;;;4995561;28;20048;-74